sensor_id;sensor_type;location;lat;lon;timestamp;temperature;humidity
31729;DHT22;18309;43.658;1.312;2023-08-06T00:00:25;19.40;99.90
31729;DHT22;18309;43.658;1.312;2023-08-06T00:02:51;19.50;99.90
31729;DHT22;18309;43.658;1.312;2023-08-06T00:05:16;19.50;99.90
31729;DHT22;18309;43.658;1.312;2023-08-06T00:07:44;19.50;99.90
31729;DHT22;18309;43.658;1.312;2023-08-06T00:10:11;19.40;99.90
31729;DHT22;18309;43.658;1.312;2023-08-06T00:12:36;19.40;99.90
31729;DHT22;18309;43.658;1.312;2023-08-06T00:15:02;19.40;99.90
31729;DHT22;18309;43.658;1.312;2023-08-06T00:17:28;19.50;99.90
31729;DHT22;18309;43.658;1.312;2023-08-06T00:19:53;19.40;99.90
31729;DHT22;18309;43.658;1.312;2023-08-06T00:22:19;19.40;99.90
31729;DHT22;18309;43.658;1.312;2023-08-06T00:24:45;19.30;99.90
31729;DHT22;18309;43.658;1.312;2023-08-06T00:27:10;19.40;99.90
31729;DHT22;18309;43.658;1.312;2023-08-06T00:29:36;19.40;99.90
31729;DHT22;18309;43.658;1.312;2023-08-06T00:32:02;19.40;99.90
31729;DHT22;18309;43.658;1.312;2023-08-06T00:34:27;19.40;99.90
31729;DHT22;18309;43.658;1.312;2023-08-06T00:36:53;19.40;99.90
31729;DHT22;18309;43.658;1.312;2023-08-06T00:39:19;19.40;99.90
31729;DHT22;18309;43.658;1.312;2023-08-06T00:41:45;19.50;99.90
31729;DHT22;18309;43.658;1.312;2023-08-06T00:44:11;19.40;99.90
31729;DHT22;18309;43.658;1.312;2023-08-06T00:46:36;19.40;99.90
31729;DHT22;18309;43.658;1.312;2023-08-06T00:49:02;19.40;99.90
31729;DHT22;18309;43.658;1.312;2023-08-06T00:51:28;19.40;99.90
31729;DHT22;18309;43.658;1.312;2023-08-06T00:53:54;19.40;99.90
31729;DHT22;18309;43.658;1.312;2023-08-06T00:56:21;19.40;99.90
31729;DHT22;18309;43.658;1.312;2023-08-06T00:58:47;19.40;99.90
31729;DHT22;18309;43.658;1.312;2023-08-06T01:01:12;19.40;99.90
31729;DHT22;18309;43.658;1.312;2023-08-06T01:03:38;19.40;99.90
31729;DHT22;18309;43.658;1.312;2023-08-06T01:06:05;19.40;99.90
31729;DHT22;18309;43.658;1.312;2023-08-06T01:08:49;19.40;99.90
31729;DHT22;18309;43.658;1.312;2023-08-06T01:15:05;19.30;99.90
31729;DHT22;18309;43.658;1.312;2023-08-06T01:17:34;19.20;99.90
31729;DHT22;18309;43.658;1.312;2023-08-06T01:20:00;19.20;99.90
31729;DHT22;18309;43.658;1.312;2023-08-06T01:22:26;19.20;99.90
31729;DHT22;18309;43.658;1.312;2023-08-06T01:24:52;19.20;99.90
31729;DHT22;18309;43.658;1.312;2023-08-06T01:27:30;19.20;99.90
31729;DHT22;18309;43.658;1.312;2023-08-06T01:30:26;19.20;99.90
31729;DHT22;18309;43.658;1.312;2023-08-06T01:32:58;19.20;99.90
31729;DHT22;18309;43.658;1.312;2023-08-06T01:35:25;19.20;99.90
31729;DHT22;18309;43.658;1.312;2023-08-06T01:37:52;19.20;99.90
31729;DHT22;18309;43.658;1.312;2023-08-06T01:40:18;19.20;99.90
31729;DHT22;18309;43.658;1.312;2023-08-06T01:42:43;19.20;99.90
31729;DHT22;18309;43.658;1.312;2023-08-06T01:45:09;19.10;99.90
31729;DHT22;18309;43.658;1.312;2023-08-06T01:47:35;19.10;99.90
31729;DHT22;18309;43.658;1.312;2023-08-06T01:50:02;19.10;99.90
31729;DHT22;18309;43.658;1.312;2023-08-06T01:52:28;19.10;99.90
31729;DHT22;18309;43.658;1.312;2023-08-06T01:54:54;19.10;99.90
31729;DHT22;18309;43.658;1.312;2023-08-06T01:57:20;19.10;99.90
31729;DHT22;18309;43.658;1.312;2023-08-06T01:59:45;19.10;99.90
31729;DHT22;18309;43.658;1.312;2023-08-06T02:02:11;19.10;99.90
31729;DHT22;18309;43.658;1.312;2023-08-06T02:04:37;19.10;99.90
31729;DHT22;18309;43.658;1.312;2023-08-06T02:07:03;19.10;99.90
31729;DHT22;18309;43.658;1.312;2023-08-06T02:09:28;19.00;99.90
31729;DHT22;18309;43.658;1.312;2023-08-06T02:11:54;19.00;99.90
31729;DHT22;18309;43.658;1.312;2023-08-06T02:14:20;19.10;99.90
31729;DHT22;18309;43.658;1.312;2023-08-06T02:16:45;19.00;99.90
31729;DHT22;18309;43.658;1.312;2023-08-06T02:19:11;19.10;99.90
31729;DHT22;18309;43.658;1.312;2023-08-06T02:21:37;19.10;99.90
31729;DHT22;18309;43.658;1.312;2023-08-06T02:24:03;19.00;99.90
31729;DHT22;18309;43.658;1.312;2023-08-06T02:26:28;19.10;99.90
31729;DHT22;18309;43.658;1.312;2023-08-06T02:28:54;19.10;99.90
31729;DHT22;18309;43.658;1.312;2023-08-06T02:31:19;19.00;99.90
31729;DHT22;18309;43.658;1.312;2023-08-06T02:33:45;19.10;99.90
31729;DHT22;18309;43.658;1.312;2023-08-06T02:36:11;19.10;99.80
31729;DHT22;18309;43.658;1.312;2023-08-06T02:38:36;19.10;99.70
31729;DHT22;18309;43.658;1.312;2023-08-06T02:41:02;19.00;99.70
31729;DHT22;18309;43.658;1.312;2023-08-06T02:43:29;19.00;99.40
31729;DHT22;18309;43.658;1.312;2023-08-06T02:45:59;19.00;99.40
31729;DHT22;18309;43.658;1.312;2023-08-06T02:48:25;18.90;99.10
31729;DHT22;18309;43.658;1.312;2023-08-06T02:50:51;18.80;98.90
31729;DHT22;18309;43.658;1.312;2023-08-06T02:53:16;18.80;98.60
31729;DHT22;18309;43.658;1.312;2023-08-06T02:55:48;18.90;98.40
31729;DHT22;18309;43.658;1.312;2023-08-06T02:58:15;18.90;98.40
31729;DHT22;18309;43.658;1.312;2023-08-06T03:00:40;18.90;98.30
31729;DHT22;18309;43.658;1.312;2023-08-06T03:03:06;18.90;98.30
31729;DHT22;18309;43.658;1.312;2023-08-06T03:05:32;18.90;98.20
31729;DHT22;18309;43.658;1.312;2023-08-06T03:07:57;18.80;98.20
31729;DHT22;18309;43.658;1.312;2023-08-06T03:10:23;18.90;98.20
31729;DHT22;18309;43.658;1.312;2023-08-06T03:12:49;18.90;98.10
31729;DHT22;18309;43.658;1.312;2023-08-06T03:15:14;18.90;98.10
31729;DHT22;18309;43.658;1.312;2023-08-06T03:17:40;18.90;98.10
31729;DHT22;18309;43.658;1.312;2023-08-06T03:20:06;18.90;98.10
31729;DHT22;18309;43.658;1.312;2023-08-06T03:22:32;18.90;98.10
31729;DHT22;18309;43.658;1.312;2023-08-06T03:24:57;18.80;98.10
31729;DHT22;18309;43.658;1.312;2023-08-06T03:27:23;18.90;98.20
31729;DHT22;18309;43.658;1.312;2023-08-06T03:29:49;18.90;98.20
31729;DHT22;18309;43.658;1.312;2023-08-06T03:32:15;18.90;98.20
31729;DHT22;18309;43.658;1.312;2023-08-06T03:34:41;18.90;98.20
31729;DHT22;18309;43.658;1.312;2023-08-06T03:37:07;18.80;98.10
31729;DHT22;18309;43.658;1.312;2023-08-06T03:39:33;18.80;98.30
31729;DHT22;18309;43.658;1.312;2023-08-06T03:41:58;18.80;98.40
31729;DHT22;18309;43.658;1.312;2023-08-06T03:44:24;18.70;98.60
31729;DHT22;18309;43.658;1.312;2023-08-06T03:46:50;18.70;98.80
31729;DHT22;18309;43.658;1.312;2023-08-06T03:49:15;18.70;99.00
31729;DHT22;18309;43.658;1.312;2023-08-06T03:51:41;18.80;99.00
31729;DHT22;18309;43.658;1.312;2023-08-06T03:54:07;18.80;99.00
31729;DHT22;18309;43.658;1.312;2023-08-06T03:56:32;18.80;99.00
31729;DHT22;18309;43.658;1.312;2023-08-06T03:58:58;18.80;99.00
31729;DHT22;18309;43.658;1.312;2023-08-06T04:01:24;18.80;99.00
31729;DHT22;18309;43.658;1.312;2023-08-06T04:03:49;18.80;99.10
31729;DHT22;18309;43.658;1.312;2023-08-06T04:06:15;18.80;99.10
31729;DHT22;18309;43.658;1.312;2023-08-06T04:08:40;18.70;99.30
31729;DHT22;18309;43.658;1.312;2023-08-06T04:11:06;18.70;99.40
31729;DHT22;18309;43.658;1.312;2023-08-06T04:13:32;18.80;99.80
31729;DHT22;18309;43.658;1.312;2023-08-06T04:16:04;18.70;99.90
31729;DHT22;18309;43.658;1.312;2023-08-06T04:18:29;18.70;99.90
31729;DHT22;18309;43.658;1.312;2023-08-06T04:20:55;18.70;99.90
31729;DHT22;18309;43.658;1.312;2023-08-06T04:23:23;18.80;99.90
31729;DHT22;18309;43.658;1.312;2023-08-06T04:25:48;18.70;99.90
31729;DHT22;18309;43.658;1.312;2023-08-06T04:28:14;18.70;99.90
31729;DHT22;18309;43.658;1.312;2023-08-06T04:30:40;18.70;99.90
31729;DHT22;18309;43.658;1.312;2023-08-06T04:33:05;18.70;99.90
31729;DHT22;18309;43.658;1.312;2023-08-06T04:35:31;18.70;99.90
31729;DHT22;18309;43.658;1.312;2023-08-06T04:37:57;18.70;99.90
31729;DHT22;18309;43.658;1.312;2023-08-06T04:40:22;18.70;99.90
31729;DHT22;18309;43.658;1.312;2023-08-06T04:42:48;18.70;99.90
31729;DHT22;18309;43.658;1.312;2023-08-06T04:45:13;18.60;99.90
31729;DHT22;18309;43.658;1.312;2023-08-06T04:47:39;18.60;99.90
31729;DHT22;18309;43.658;1.312;2023-08-06T04:50:05;18.70;99.90
31729;DHT22;18309;43.658;1.312;2023-08-06T04:52:31;18.70;99.90
31729;DHT22;18309;43.658;1.312;2023-08-06T04:54:57;18.70;99.80
31729;DHT22;18309;43.658;1.312;2023-08-06T04:57:23;18.60;99.70
31729;DHT22;18309;43.658;1.312;2023-08-06T04:59:49;18.60;99.70
31729;DHT22;18309;43.658;1.312;2023-08-06T05:02:14;18.60;99.70
31729;DHT22;18309;43.658;1.312;2023-08-06T05:04:40;18.60;99.70
31729;DHT22;18309;43.658;1.312;2023-08-06T05:07:06;18.60;99.70
31729;DHT22;18309;43.658;1.312;2023-08-06T05:09:32;18.60;99.50
31729;DHT22;18309;43.658;1.312;2023-08-06T05:12:00;18.60;99.40
31729;DHT22;18309;43.658;1.312;2023-08-06T05:14:25;18.60;99.30
31729;DHT22;18309;43.658;1.312;2023-08-06T05:16:51;18.60;99.20
31729;DHT22;18309;43.658;1.312;2023-08-06T05:19:17;18.60;99.50
31729;DHT22;18309;43.658;1.312;2023-08-06T05:21:42;18.50;99.10
31729;DHT22;18309;43.658;1.312;2023-08-06T05:24:08;18.60;99.10
31729;DHT22;18309;43.658;1.312;2023-08-06T05:26:33;18.60;99.00
31729;DHT22;18309;43.658;1.312;2023-08-06T05:29:00;18.60;98.90
31729;DHT22;18309;43.658;1.312;2023-08-06T05:31:26;18.60;98.70
31729;DHT22;18309;43.658;1.312;2023-08-06T05:33:51;18.60;98.60
31729;DHT22;18309;43.658;1.312;2023-08-06T05:36:17;18.50;98.50
31729;DHT22;18309;43.658;1.312;2023-08-06T05:38:43;18.50;98.10
31729;DHT22;18309;43.658;1.312;2023-08-06T05:41:09;18.50;97.90
31729;DHT22;18309;43.658;1.312;2023-08-06T05:43:34;18.50;97.80
31729;DHT22;18309;43.658;1.312;2023-08-06T05:46:00;18.50;98.10
31729;DHT22;18309;43.658;1.312;2023-08-06T05:48:25;18.50;97.70
31729;DHT22;18309;43.658;1.312;2023-08-06T05:50:53;18.50;97.70
31729;DHT22;18309;43.658;1.312;2023-08-06T05:53:19;18.60;97.60
31729;DHT22;18309;43.658;1.312;2023-08-06T05:55:45;18.50;97.40
31729;DHT22;18309;43.658;1.312;2023-08-06T05:58:10;18.50;97.40
31729;DHT22;18309;43.658;1.312;2023-08-06T06:00:36;18.60;97.50
31729;DHT22;18309;43.658;1.312;2023-08-06T06:03:02;18.60;97.50
31729;DHT22;18309;43.658;1.312;2023-08-06T06:05:28;18.60;97.50
31729;DHT22;18309;43.658;1.312;2023-08-06T06:07:53;18.50;97.50
31729;DHT22;18309;43.658;1.312;2023-08-06T06:10:19;18.60;97.50
31729;DHT22;18309;43.658;1.312;2023-08-06T06:12:45;18.60;97.60
31729;DHT22;18309;43.658;1.312;2023-08-06T06:15:10;18.60;97.60
31729;DHT22;18309;43.658;1.312;2023-08-06T06:17:36;18.60;97.70
31729;DHT22;18309;43.658;1.312;2023-08-06T06:20:02;18.60;97.80
31729;DHT22;18309;43.658;1.312;2023-08-06T06:22:29;18.60;97.90
31729;DHT22;18309;43.658;1.312;2023-08-06T06:24:55;18.50;98.10
31729;DHT22;18309;43.658;1.312;2023-08-06T06:27:21;18.50;98.20
31729;DHT22;18309;43.658;1.312;2023-08-06T06:29:46;18.60;98.30
31729;DHT22;18309;43.658;1.312;2023-08-06T06:32:12;18.60;98.30
31729;DHT22;18309;43.658;1.312;2023-08-06T06:34:38;18.50;98.20
31729;DHT22;18309;43.658;1.312;2023-08-06T06:37:04;18.50;98.20
31729;DHT22;18309;43.658;1.312;2023-08-06T06:39:30;18.50;98.10
31729;DHT22;18309;43.658;1.312;2023-08-06T06:41:55;18.50;98.20
31729;DHT22;18309;43.658;1.312;2023-08-06T06:44:21;18.50;98.00
31729;DHT22;18309;43.658;1.312;2023-08-06T06:46:47;18.60;98.00
31729;DHT22;18309;43.658;1.312;2023-08-06T06:49:13;18.60;98.10
31729;DHT22;18309;43.658;1.312;2023-08-06T06:51:38;18.60;98.00
31729;DHT22;18309;43.658;1.312;2023-08-06T06:54:04;18.60;98.00
31729;DHT22;18309;43.658;1.312;2023-08-06T06:56:30;18.60;97.70
31729;DHT22;18309;43.658;1.312;2023-08-06T06:58:55;18.60;97.60
31729;DHT22;18309;43.658;1.312;2023-08-06T07:01:21;18.60;97.60
31729;DHT22;18309;43.658;1.312;2023-08-06T07:03:47;18.60;97.50
31729;DHT22;18309;43.658;1.312;2023-08-06T07:06:12;18.70;97.40
31729;DHT22;18309;43.658;1.312;2023-08-06T07:08:38;18.70;97.40
31729;DHT22;18309;43.658;1.312;2023-08-06T07:11:05;18.70;97.40
31729;DHT22;18309;43.658;1.312;2023-08-06T07:13:31;18.70;97.40
31729;DHT22;18309;43.658;1.312;2023-08-06T07:15:58;18.70;97.30
31729;DHT22;18309;43.658;1.312;2023-08-06T07:18:24;18.70;97.00
31729;DHT22;18309;43.658;1.312;2023-08-06T07:20:50;18.70;97.10
31729;DHT22;18309;43.658;1.312;2023-08-06T07:23:17;18.80;97.10
31729;DHT22;18309;43.658;1.312;2023-08-06T07:25:42;18.80;96.90
31729;DHT22;18309;43.658;1.312;2023-08-06T07:28:09;18.80;96.80
31729;DHT22;18309;43.658;1.312;2023-08-06T07:30:38;18.80;96.60
31729;DHT22;18309;43.658;1.312;2023-08-06T07:33:04;18.80;96.40
31729;DHT22;18309;43.658;1.312;2023-08-06T07:35:30;18.80;97.00
31729;DHT22;18309;43.658;1.312;2023-08-06T07:37:55;18.60;97.00
31729;DHT22;18309;43.658;1.312;2023-08-06T07:40:21;18.60;97.40
31729;DHT22;18309;43.658;1.312;2023-08-06T07:42:46;18.60;97.10
31729;DHT22;18309;43.658;1.312;2023-08-06T07:45:12;18.90;97.90
31729;DHT22;18309;43.658;1.312;2023-08-06T07:47:38;18.90;96.50
31729;DHT22;18309;43.658;1.312;2023-08-06T07:50:04;19.10;96.90
31729;DHT22;18309;43.658;1.312;2023-08-06T07:52:29;19.20;96.60
31729;DHT22;18309;43.658;1.312;2023-08-06T07:54:55;19.20;96.40
31729;DHT22;18309;43.658;1.312;2023-08-06T07:57:21;19.10;95.60
31729;DHT22;18309;43.658;1.312;2023-08-06T07:59:46;19.10;95.30
31729;DHT22;18309;43.658;1.312;2023-08-06T08:02:12;19.20;95.10
31729;DHT22;18309;43.658;1.312;2023-08-06T08:04:38;18.90;94.80
31729;DHT22;18309;43.658;1.312;2023-08-06T08:07:04;19.00;95.40
31729;DHT22;18309;43.658;1.312;2023-08-06T08:09:29;18.80;94.80
31729;DHT22;18309;43.658;1.312;2023-08-06T08:11:55;18.80;94.90
31729;DHT22;18309;43.658;1.312;2023-08-06T08:14:21;18.60;94.80
31729;DHT22;18309;43.658;1.312;2023-08-06T08:16:46;18.80;95.70
31729;DHT22;18309;43.658;1.312;2023-08-06T08:19:12;18.80;95.50
31729;DHT22;18309;43.658;1.312;2023-08-06T08:21:38;19.00;96.10
31729;DHT22;18309;43.658;1.312;2023-08-06T08:24:04;19.00;94.50
31729;DHT22;18309;43.658;1.312;2023-08-06T08:26:30;18.90;94.80
31729;DHT22;18309;43.658;1.312;2023-08-06T08:28:56;19.00;94.50
31729;DHT22;18309;43.658;1.312;2023-08-06T08:31:22;19.10;94.80
31729;DHT22;18309;43.658;1.312;2023-08-06T08:33:48;19.10;94.50
31729;DHT22;18309;43.658;1.312;2023-08-06T08:36:13;18.90;94.50
31729;DHT22;18309;43.658;1.312;2023-08-06T08:38:39;19.10;95.10
31729;DHT22;18309;43.658;1.312;2023-08-06T08:41:05;19.10;94.10
31729;DHT22;18309;43.658;1.312;2023-08-06T08:43:31;19.30;94.90
31729;DHT22;18309;43.658;1.312;2023-08-06T08:45:57;19.30;94.40
31729;DHT22;18309;43.658;1.312;2023-08-06T08:48:25;19.00;95.00
31729;DHT22;18309;43.658;1.312;2023-08-06T08:50:52;19.00;94.30
31729;DHT22;18309;43.658;1.312;2023-08-06T08:53:18;19.30;94.70
31729;DHT22;18309;43.658;1.312;2023-08-06T08:55:47;19.50;94.20
31729;DHT22;18309;43.658;1.312;2023-08-06T08:58:14;19.50;94.60
31729;DHT22;18309;43.658;1.312;2023-08-06T09:00:43;19.30;93.90
31729;DHT22;18309;43.658;1.312;2023-08-06T09:03:10;19.10;94.20
31729;DHT22;18309;43.658;1.312;2023-08-06T09:05:37;19.20;94.10
31729;DHT22;18309;43.658;1.312;2023-08-06T09:08:05;19.20;94.10
31729;DHT22;18309;43.658;1.312;2023-08-06T09:10:31;19.30;93.70
31729;DHT22;18309;43.658;1.312;2023-08-06T09:12:57;19.40;93.90
31729;DHT22;18309;43.658;1.312;2023-08-06T09:15:24;19.50;93.90
31729;DHT22;18309;43.658;1.312;2023-08-06T09:17:54;19.60;93.50
31729;DHT22;18309;43.658;1.312;2023-08-06T09:20:20;19.70;93.80
31729;DHT22;18309;43.658;1.312;2023-08-06T09:22:46;19.60;92.90
31729;DHT22;18309;43.658;1.312;2023-08-06T09:25:24;19.60;93.30
31729;DHT22;18309;43.658;1.312;2023-08-06T09:27:51;19.50;93.90
31729;DHT22;18309;43.658;1.312;2023-08-06T09:30:31;19.70;93.80
31729;DHT22;18309;43.658;1.312;2023-08-06T09:32:57;19.50;93.50
31729;DHT22;18309;43.658;1.312;2023-08-06T09:35:23;19.40;93.50
31729;DHT22;18309;43.658;1.312;2023-08-06T09:37:48;19.60;93.20
31729;DHT22;18309;43.658;1.312;2023-08-06T09:42:56;20.00;93.70
31729;DHT22;18309;43.658;1.312;2023-08-06T09:45:23;20.00;92.20
31729;DHT22;18309;43.658;1.312;2023-08-06T09:47:56;20.20;92.40
31729;DHT22;18309;43.658;1.312;2023-08-06T09:50:21;20.40;92.30
31729;DHT22;18309;43.658;1.312;2023-08-06T09:52:47;20.60;92.30
31729;DHT22;18309;43.658;1.312;2023-08-06T09:55:15;20.50;91.10
31729;DHT22;18309;43.658;1.312;2023-08-06T09:57:42;20.10;91.70
31729;DHT22;18309;43.658;1.312;2023-08-06T10:00:11;19.90;92.30
31729;DHT22;18309;43.658;1.312;2023-08-06T10:02:40;20.10;91.80
31729;DHT22;18309;43.658;1.312;2023-08-06T10:05:07;20.40;91.50
31729;DHT22;18309;43.658;1.312;2023-08-06T10:07:34;20.70;91.50
31729;DHT22;18309;43.658;1.312;2023-08-06T10:10:00;20.80;91.50
31729;DHT22;18309;43.658;1.312;2023-08-06T10:12:28;20.80;90.50
31729;DHT22;18309;43.658;1.312;2023-08-06T10:14:57;20.40;90.30
31729;DHT22;18309;43.658;1.312;2023-08-06T10:17:23;20.10;90.50
31729;DHT22;18309;43.658;1.312;2023-08-06T10:19:50;20.10;90.90
31729;DHT22;18309;43.658;1.312;2023-08-06T10:22:19;20.40;90.70
31729;DHT22;18309;43.658;1.312;2023-08-06T10:29:48;20.40;90.80
31729;DHT22;18309;43.658;1.312;2023-08-06T10:32:15;20.80;90.70
31729;DHT22;18309;43.658;1.312;2023-08-06T10:34:54;20.70;90.10
31729;DHT22;18309;43.658;1.312;2023-08-06T10:37:36;20.50;90.10
31729;DHT22;18309;43.658;1.312;2023-08-06T10:40:02;20.40;90.00
31729;DHT22;18309;43.658;1.312;2023-08-06T10:42:29;20.80;90.40
31729;DHT22;18309;43.658;1.312;2023-08-06T10:45:14;20.90;88.80
31729;DHT22;18309;43.658;1.312;2023-08-06T10:47:41;20.70;88.50
31729;DHT22;18309;43.658;1.312;2023-08-06T10:50:10;20.70;89.40
31729;DHT22;18309;43.658;1.312;2023-08-06T10:52:36;20.90;90.00
31729;DHT22;18309;43.658;1.312;2023-08-06T10:55:01;20.80;90.00
31729;DHT22;18309;43.658;1.312;2023-08-06T10:57:27;20.90;89.50
31729;DHT22;18309;43.658;1.312;2023-08-06T10:59:53;20.90;88.60
31729;DHT22;18309;43.658;1.312;2023-08-06T11:02:18;20.90;88.00
31729;DHT22;18309;43.658;1.312;2023-08-06T11:04:44;20.90;88.50
31729;DHT22;18309;43.658;1.312;2023-08-06T11:07:10;21.00;89.40
31729;DHT22;18309;43.658;1.312;2023-08-06T11:09:36;21.10;89.20
31729;DHT22;18309;43.658;1.312;2023-08-06T11:12:02;21.20;88.40
31729;DHT22;18309;43.658;1.312;2023-08-06T11:14:32;21.10;88.00
31729;DHT22;18309;43.658;1.312;2023-08-06T11:16:57;21.10;89.40
31729;DHT22;18309;43.658;1.312;2023-08-06T11:19:23;21.30;88.30
31729;DHT22;18309;43.658;1.312;2023-08-06T11:21:51;21.50;89.20
31729;DHT22;18309;43.658;1.312;2023-08-06T11:24:17;21.50;87.20
31729;DHT22;18309;43.658;1.312;2023-08-06T11:26:43;21.50;86.00
31729;DHT22;18309;43.658;1.312;2023-08-06T11:29:10;21.60;85.30
31729;DHT22;18309;43.658;1.312;2023-08-06T11:31:36;21.80;84.60
31729;DHT22;18309;43.658;1.312;2023-08-06T11:34:02;21.70;85.70
31729;DHT22;18309;43.658;1.312;2023-08-06T11:36:33;21.70;83.60
31729;DHT22;18309;43.658;1.312;2023-08-06T11:39:03;21.40;84.70
31729;DHT22;18309;43.658;1.312;2023-08-06T11:41:31;21.40;84.70
31729;DHT22;18309;43.658;1.312;2023-08-06T11:43:58;21.60;84.40
31729;DHT22;18309;43.658;1.312;2023-08-06T11:46:24;21.40;84.20
31729;DHT22;18309;43.658;1.312;2023-08-06T11:48:57;21.20;84.30
31729;DHT22;18309;43.658;1.312;2023-08-06T11:51:24;21.20;84.70
31729;DHT22;18309;43.658;1.312;2023-08-06T11:54:00;21.10;84.80
31729;DHT22;18309;43.658;1.312;2023-08-06T11:56:26;21.10;84.00
31729;DHT22;18309;43.658;1.312;2023-08-06T11:58:54;21.40;84.70
31729;DHT22;18309;43.658;1.312;2023-08-06T12:01:23;21.50;82.80
31729;DHT22;18309;43.658;1.312;2023-08-06T12:03:49;21.60;82.20
31729;DHT22;18309;43.658;1.312;2023-08-06T12:06:15;21.70;82.40
31729;DHT22;18309;43.658;1.312;2023-08-06T12:08:41;21.80;81.70
31729;DHT22;18309;43.658;1.312;2023-08-06T12:11:07;21.80;81.60
31729;DHT22;18309;43.658;1.312;2023-08-06T12:13:34;21.70;81.60
31729;DHT22;18309;43.658;1.312;2023-08-06T12:15:59;21.90;81.30
31729;DHT22;18309;43.658;1.312;2023-08-06T12:18:25;21.80;80.80
31729;DHT22;18309;43.658;1.312;2023-08-06T12:20:51;21.70;79.40
31729;DHT22;18309;43.658;1.312;2023-08-06T12:23:17;22.00;79.80
31729;DHT22;18309;43.658;1.312;2023-08-06T12:25:43;22.00;79.50
31729;DHT22;18309;43.658;1.312;2023-08-06T12:28:10;21.90;79.30
31729;DHT22;18309;43.658;1.312;2023-08-06T12:30:36;21.80;80.20
31729;DHT22;18309;43.658;1.312;2023-08-06T12:33:02;22.30;80.10
31729;DHT22;18309;43.658;1.312;2023-08-06T12:35:27;22.50;79.00
31729;DHT22;18309;43.658;1.312;2023-08-06T12:37:53;22.60;78.80
31729;DHT22;18309;43.658;1.312;2023-08-06T12:40:20;22.50;78.20
31729;DHT22;18309;43.658;1.312;2023-08-06T12:42:46;22.30;78.60
31729;DHT22;18309;43.658;1.312;2023-08-06T12:45:12;22.40;78.60
31729;DHT22;18309;43.658;1.312;2023-08-06T12:47:38;22.20;78.50
31729;DHT22;18309;43.658;1.312;2023-08-06T12:50:04;22.50;79.80
31729;DHT22;18309;43.658;1.312;2023-08-06T12:52:33;22.70;80.80
31729;DHT22;18309;43.658;1.312;2023-08-06T12:54:58;22.50;80.80
31729;DHT22;18309;43.658;1.312;2023-08-06T12:57:24;22.50;81.20
31729;DHT22;18309;43.658;1.312;2023-08-06T12:59:50;22.90;80.90
31729;DHT22;18309;43.658;1.312;2023-08-06T13:02:16;23.00;78.90
31729;DHT22;18309;43.658;1.312;2023-08-06T13:04:41;22.80;77.50
31729;DHT22;18309;43.658;1.312;2023-08-06T13:07:07;22.80;78.80
31729;DHT22;18309;43.658;1.312;2023-08-06T13:09:33;22.70;79.50
31729;DHT22;18309;43.658;1.312;2023-08-06T13:11:59;23.00;78.50
31729;DHT22;18309;43.658;1.312;2023-08-06T13:14:25;22.80;77.30
31729;DHT22;18309;43.658;1.312;2023-08-06T13:16:51;22.70;78.50
31729;DHT22;18309;43.658;1.312;2023-08-06T13:19:17;22.40;80.80
31729;DHT22;18309;43.658;1.312;2023-08-06T13:24:15;22.30;80.70
31729;DHT22;18309;43.658;1.312;2023-08-06T13:26:41;22.30;80.40
31729;DHT22;18309;43.658;1.312;2023-08-06T13:29:06;22.60;80.00
31729;DHT22;18309;43.658;1.312;2023-08-06T13:31:36;22.60;78.00
31729;DHT22;18309;43.658;1.312;2023-08-06T13:34:02;22.60;78.00
31729;DHT22;18309;43.658;1.312;2023-08-06T13:36:28;22.60;79.60
31729;DHT22;18309;43.658;1.312;2023-08-06T13:38:54;22.50;81.00
31729;DHT22;18309;43.658;1.312;2023-08-06T13:41:20;22.60;81.50
31729;DHT22;18309;43.658;1.312;2023-08-06T13:43:46;22.90;80.60
31729;DHT22;18309;43.658;1.312;2023-08-06T13:46:12;23.30;79.40
31729;DHT22;18309;43.658;1.312;2023-08-06T13:48:46;23.60;77.20
31729;DHT22;18309;43.658;1.312;2023-08-06T13:51:12;23.70;76.20
31729;DHT22;18309;43.658;1.312;2023-08-06T13:53:39;24.30;73.50
31729;DHT22;18309;43.658;1.312;2023-08-06T13:56:05;24.60;71.60
31729;DHT22;18309;43.658;1.312;2023-08-06T13:58:32;25.00;70.90
31729;DHT22;18309;43.658;1.312;2023-08-06T14:00:58;24.50;72.10
31729;DHT22;18309;43.658;1.312;2023-08-06T14:03:24;25.90;69.80
31729;DHT22;18309;43.658;1.312;2023-08-06T14:05:49;25.30;70.10
31729;DHT22;18309;43.658;1.312;2023-08-06T14:08:15;24.90;73.40
31729;DHT22;18309;43.658;1.312;2023-08-06T14:10:45;28.30;63.50
31729;DHT22;18309;43.658;1.312;2023-08-06T14:13:11;29.40;60.10
31729;DHT22;18309;43.658;1.312;2023-08-06T14:15:37;29.00;60.70
31729;DHT22;18309;43.658;1.312;2023-08-06T14:18:05;29.00;60.90
31729;DHT22;18309;43.658;1.312;2023-08-06T14:20:31;29.00;62.70
31729;DHT22;18309;43.658;1.312;2023-08-06T14:22:57;26.60;65.80
31729;DHT22;18309;43.658;1.312;2023-08-06T14:25:22;25.70;68.50
31729;DHT22;18309;43.658;1.312;2023-08-06T14:27:48;24.90;69.70
31729;DHT22;18309;43.658;1.312;2023-08-06T14:30:14;25.40;71.40
31729;DHT22;18309;43.658;1.312;2023-08-06T14:32:39;25.30;71.30
31729;DHT22;18309;43.658;1.312;2023-08-06T14:35:05;25.20;71.30
31729;DHT22;18309;43.658;1.312;2023-08-06T14:37:32;25.00;71.50
31729;DHT22;18309;43.658;1.312;2023-08-06T14:39:57;25.50;69.70
31729;DHT22;18309;43.658;1.312;2023-08-06T14:42:23;25.00;70.10
31729;DHT22;18309;43.658;1.312;2023-08-06T14:44:49;24.50;70.00
31729;DHT22;18309;43.658;1.312;2023-08-06T14:47:15;24.10;71.90
31729;DHT22;18309;43.658;1.312;2023-08-06T14:49:41;23.90;72.80
31729;DHT22;18309;43.658;1.312;2023-08-06T14:52:07;23.90;72.50
31729;DHT22;18309;43.658;1.312;2023-08-06T14:54:32;23.80;73.30
31729;DHT22;18309;43.658;1.312;2023-08-06T14:56:58;23.60;73.80
31729;DHT22;18309;43.658;1.312;2023-08-06T14:59:24;23.70;73.60
31729;DHT22;18309;43.658;1.312;2023-08-06T15:01:50;23.90;73.40
31729;DHT22;18309;43.658;1.312;2023-08-06T15:04:17;23.60;72.40
31729;DHT22;18309;43.658;1.312;2023-08-06T15:06:44;24.40;71.30
31729;DHT22;18309;43.658;1.312;2023-08-06T15:09:09;25.20;70.30
31729;DHT22;18309;43.658;1.312;2023-08-06T15:11:35;25.70;69.10
31729;DHT22;18309;43.658;1.312;2023-08-06T15:14:01;25.80;68.50
31729;DHT22;18309;43.658;1.312;2023-08-06T15:16:29;26.00;67.80
31729;DHT22;18309;43.658;1.312;2023-08-06T15:18:54;25.70;68.20
31729;DHT22;18309;43.658;1.312;2023-08-06T15:21:21;25.40;68.70
31729;DHT22;18309;43.658;1.312;2023-08-06T15:23:47;25.10;68.80
31729;DHT22;18309;43.658;1.312;2023-08-06T15:26:12;25.50;69.20
31729;DHT22;18309;43.658;1.312;2023-08-06T15:28:38;25.80;68.50
31729;DHT22;18309;43.658;1.312;2023-08-06T15:31:04;25.50;67.40
31729;DHT22;18309;43.658;1.312;2023-08-06T15:33:31;25.00;69.00
31729;DHT22;18309;43.658;1.312;2023-08-06T15:35:56;24.90;69.70
31729;DHT22;18309;43.658;1.312;2023-08-06T15:38:23;24.40;69.20